createdAt,value
2023-05-15T00:00:49.573Z,8.30
2023-05-15T00:03:16.361Z,7.10
2023-05-15T00:05:43.167Z,7.78
2023-05-15T00:08:09.723Z,7.45
2023-05-15T00:10:36.316Z,7.68
2023-05-15T00:13:02.840Z,7.15
2023-05-15T00:15:29.609Z,7.80
2023-05-15T00:17:56.194Z,8.18
2023-05-15T00:20:22.755Z,7.78
2023-05-15T00:22:49.374Z,7.60
2023-05-15T00:25:15.910Z,7.97
2023-05-15T00:27:42.441Z,7.53
2023-05-15T00:30:09.410Z,7.90
2023-05-15T00:32:35.963Z,7.20
2023-05-15T00:35:02.488Z,7.72
2023-05-15T00:37:31.067Z,8.02
2023-05-15T00:39:57.636Z,8.23
2023-05-15T00:42:25.116Z,8.65
2023-05-15T00:44:52.694Z,8.63
2023-05-15T00:47:21.112Z,8.68
2023-05-15T00:49:47.849Z,8.38
2023-05-15T00:52:14.894Z,8.52
2023-05-15T00:54:42.086Z,8.90
2023-05-15T00:57:09.522Z,8.05
2023-05-15T00:59:36.553Z,8.32
2023-05-15T01:02:04.049Z,8.30
2023-05-15T01:04:31.284Z,8.75
2023-05-15T01:06:57.962Z,7.85
2023-05-15T01:09:25.636Z,8.10
2023-05-15T01:11:54.200Z,9.25
2023-05-15T01:14:20.804Z,8.07
2023-05-15T01:16:47.454Z,8.90
2023-05-15T01:19:14.213Z,8.27
2023-05-15T01:21:57.882Z,9.48
2023-05-15T01:24:55.770Z,9.45
2023-05-15T01:27:37.413Z,9.00
2023-05-15T01:30:25.247Z,8.63
2023-05-15T01:33:26.086Z,8.73
2023-05-15T01:36:00.131Z,9.73
2023-05-15T01:38:35.641Z,9.77
2023-05-15T01:41:06.783Z,9.43
2023-05-15T01:46:01.359Z,9.38
2023-05-15T01:48:28.689Z,9.40
2023-05-15T01:50:58.322Z,9.38
2023-05-15T01:53:25.437Z,11.38
2023-05-15T01:55:52.473Z,9.88
2023-05-15T01:58:19.127Z,10.55
2023-05-15T02:00:46.703Z,9.75
2023-05-15T02:03:13.768Z,9.93
2023-05-15T02:05:41.291Z,10.82
2023-05-15T02:08:07.839Z,10.57
2023-05-15T02:10:35.126Z,9.90
2023-05-15T02:13:01.990Z,9.50
2023-05-15T02:15:29.213Z,10.40
2023-05-15T02:17:56.167Z,10.95
2023-05-15T02:20:22.682Z,10.00
2023-05-15T02:22:49.219Z,10.30
2023-05-15T02:25:16.068Z,10.80
2023-05-15T02:27:51.600Z,9.93
2023-05-15T02:30:56.147Z,10.18
2023-05-15T02:33:35.923Z,10.57
2023-05-15T02:36:05.682Z,10.60
2023-05-15T02:38:46.958Z,10.63
2023-05-15T02:43:40.992Z,10.73
2023-05-15T02:46:08.120Z,11.30
2023-05-15T02:48:35.674Z,11.65
2023-05-15T02:51:02.587Z,11.40
2023-05-15T02:53:29.786Z,10.55
2023-05-15T02:55:56.473Z,10.38
2023-05-15T02:58:23.096Z,12.00
2023-05-15T03:00:49.720Z,10.43
2023-05-15T03:03:16.439Z,11.52
2023-05-15T03:05:43.006Z,9.95
2023-05-15T03:08:09.568Z,10.05
2023-05-15T03:10:36.111Z,10.70
2023-05-15T03:13:02.733Z,11.98
2023-05-15T03:15:29.249Z,11.05
2023-05-15T03:17:55.801Z,11.35
2023-05-15T03:20:22.423Z,11.25
2023-05-15T03:22:49.027Z,10.63
2023-05-15T03:25:15.800Z,11.07
2023-05-15T03:27:42.292Z,11.80
2023-05-15T03:30:09.277Z,11.15
2023-05-15T03:32:35.805Z,10.90
2023-05-15T03:35:02.418Z,11.05
2023-05-15T03:37:29.005Z,11.57
2023-05-15T03:39:55.709Z,11.23
2023-05-15T03:42:23.690Z,10.82
2023-05-15T03:44:50.809Z,11.80
2023-05-15T03:47:18.063Z,12.18
2023-05-15T03:49:45.928Z,11.27
2023-05-15T03:52:12.613Z,11.40
2023-05-15T03:54:39.122Z,11.18
2023-05-15T03:57:06.504Z,11.10
2023-05-15T03:59:33.009Z,11.32
2023-05-15T04:02:04.697Z,10.65
2023-05-15T04:04:31.766Z,11.27
2023-05-15T04:06:58.298Z,11.55
2023-05-15T04:09:24.788Z,11.35
2023-05-15T04:11:51.316Z,12.32
2023-05-15T04:14:17.825Z,12.15
2023-05-15T04:16:44.552Z,12.40
2023-05-15T04:19:11.215Z,12.65
2023-05-15T04:21:37.823Z,11.93
2023-05-15T04:24:04.428Z,11.57
2023-05-15T04:26:31.557Z,11.32
2023-05-15T04:29:03.999Z,11.60
2023-05-15T04:31:31.834Z,11.80
2023-05-15T04:33:58.666Z,12.18
2023-05-15T04:36:25.448Z,12.73
2023-05-15T04:38:51.968Z,12.52
2023-05-15T04:41:18.692Z,11.88
2023-05-15T04:43:45.545Z,12.60
2023-05-15T04:46:12.325Z,11.95
2023-05-15T04:48:38.860Z,12.35
2023-05-15T04:51:05.414Z,13.00
2023-05-15T04:53:31.942Z,18.63
2023-05-15T04:55:58.443Z,15.45
2023-05-15T04:58:24.967Z,13.80
2023-05-15T05:00:51.467Z,13.40
2023-05-15T05:03:18.118Z,13.57
2023-05-15T05:05:44.657Z,13.60
2023-05-15T05:08:11.227Z,13.80
2023-05-15T05:10:37.740Z,15.05
2023-05-15T05:13:04.273Z,13.80
2023-05-15T05:15:30.795Z,13.98
2023-05-15T05:17:57.366Z,13.65
2023-05-15T05:20:23.916Z,14.23
2023-05-15T05:22:50.461Z,13.77
2023-05-15T05:25:17.056Z,13.55
2023-05-15T05:27:43.615Z,13.73
2023-05-15T05:30:10.497Z,13.20
2023-05-15T05:32:37.118Z,13.40
2023-05-15T05:35:04.086Z,14.35
2023-05-15T05:37:30.666Z,14.63
2023-05-15T05:39:57.173Z,13.73
2023-05-15T05:42:23.722Z,15.20
2023-05-15T05:44:50.432Z,15.13
2023-05-15T05:47:17.020Z,13.63
2023-05-15T05:49:43.633Z,14.00
2023-05-15T05:52:10.332Z,14.65
2023-05-15T05:54:37.109Z,13.25
2023-05-15T05:57:03.674Z,13.45
2023-05-15T05:59:30.605Z,12.60
2023-05-15T06:01:57.336Z,11.52
2023-05-15T06:04:24.064Z,11.82
2023-05-15T06:06:50.758Z,11.32
2023-05-15T06:09:18.032Z,12.32
2023-05-15T06:11:45.559Z,10.48
2023-05-15T06:14:12.198Z,10.25
2023-05-15T06:16:38.724Z,10.05
2023-05-15T06:19:05.587Z,8.73
2023-05-15T06:21:32.164Z,10.02
2023-05-15T06:23:58.683Z,9.65
2023-05-15T06:26:26.223Z,10.07
2023-05-15T06:28:52.779Z,10.23
2023-05-15T06:31:19.393Z,9.18
2023-05-15T06:33:45.974Z,9.70
2023-05-15T06:36:12.494Z,9.23
2023-05-15T06:38:39.618Z,10.68
2023-05-15T06:41:06.161Z,9.48
2023-05-15T06:43:32.656Z,8.10
2023-05-15T06:45:59.250Z,8.38
2023-05-15T06:48:25.996Z,8.32
2023-05-15T06:50:52.808Z,7.53
2023-05-15T06:53:20.970Z,8.00
2023-05-15T06:55:47.520Z,7.63
2023-05-15T06:58:14.112Z,7.75
2023-05-15T07:00:40.694Z,7.95
2023-05-15T07:03:07.242Z,6.65
2023-05-15T07:05:33.844Z,6.15
2023-05-15T07:08:00.571Z,6.28
2023-05-15T07:10:27.298Z,6.43
2023-05-15T07:12:54.564Z,6.25
2023-05-15T07:15:21.100Z,6.35
2023-05-15T07:17:47.746Z,6.47
2023-05-15T07:20:14.340Z,6.32
2023-05-15T07:22:52.015Z,6.85
2023-05-15T07:25:23.152Z,6.30
2023-05-15T07:27:49.903Z,5.75
2023-05-15T07:30:16.629Z,6.68
2023-05-15T07:32:43.346Z,6.32
2023-05-15T07:35:11.550Z,5.55
2023-05-15T07:37:38.535Z,5.88
2023-05-15T07:40:05.841Z,5.20
2023-05-15T07:42:32.392Z,5.10
2023-05-15T07:44:58.891Z,4.88
2023-05-15T07:47:25.586Z,4.38
2023-05-15T07:49:52.160Z,4.97
2023-05-15T07:52:19.292Z,5.18
2023-05-15T07:54:45.794Z,4.43
2023-05-15T07:57:13.089Z,4.55
2023-05-15T07:59:39.722Z,4.93
2023-05-15T08:02:06.927Z,3.70
2023-05-15T08:04:33.673Z,4.28
2023-05-15T08:07:00.432Z,3.95
2023-05-15T08:09:26.960Z,3.78
2023-05-15T08:11:55.925Z,4.22
2023-05-15T08:14:22.519Z,4.00
2023-05-15T08:16:49.959Z,3.97
2023-05-15T08:19:16.574Z,3.65
2023-05-15T08:21:43.195Z,3.55
2023-05-15T08:24:09.783Z,3.83
2023-05-15T08:26:36.380Z,3.80
2023-05-15T08:29:02.977Z,3.53
2023-05-15T08:31:29.681Z,4.03
2023-05-15T08:33:56.194Z,3.90
2023-05-15T08:36:22.938Z,3.63
2023-05-15T08:38:49.698Z,3.97
2023-05-15T08:41:38.666Z,4.38
2023-05-15T08:44:09.219Z,3.95
2023-05-15T08:46:36.030Z,4.07
2023-05-15T08:49:15.859Z,3.63
2023-05-15T08:51:42.715Z,4.10
2023-05-15T08:54:10.112Z,4.10
2023-05-15T08:56:36.677Z,4.13
2023-05-15T08:59:04.208Z,4.13
2023-05-15T09:01:31.067Z,3.78
2023-05-15T09:03:57.656Z,3.97
2023-05-15T09:06:24.980Z,4.15
2023-05-15T09:08:52.253Z,4.10
2023-05-15T09:11:18.815Z,3.65
2023-05-15T09:13:45.361Z,4.00
2023-05-15T09:16:11.879Z,4.63
2023-05-15T09:18:39.072Z,4.10
2023-05-15T09:21:25.403Z,3.65
2023-05-15T09:23:52.938Z,3.70
2023-05-15T09:26:19.529Z,4.00
2023-05-15T09:28:46.451Z,4.18
2023-05-15T09:31:13.483Z,4.03
2023-05-15T09:33:41.589Z,3.85
2023-05-15T09:36:09.409Z,4.57
2023-05-15T09:38:42.367Z,4.50
2023-05-15T09:41:09.440Z,4.18
2023-05-15T09:43:40.642Z,4.07
2023-05-15T09:46:13.106Z,4.35
2023-05-15T09:48:39.879Z,4.20
2023-05-15T09:51:14.735Z,4.70
2023-05-15T09:53:41.801Z,4.13
2023-05-15T09:56:10.416Z,3.72
2023-05-15T09:58:37.025Z,4.10
2023-05-15T10:01:04.253Z,4.40
2023-05-15T10:03:30.893Z,4.25
2023-05-15T10:06:01.635Z,4.00
2023-05-15T10:08:29.189Z,4.03
2023-05-15T10:10:59.872Z,4.75
2023-05-15T10:13:26.695Z,4.32
2023-05-15T10:15:53.961Z,4.25
2023-05-15T10:18:22.184Z,3.72
2023-05-15T10:20:49.361Z,3.67
2023-05-15T10:23:17.890Z,4.18
2023-05-15T10:25:56.313Z,4.35
2023-05-15T10:28:23.124Z,4.30
2023-05-15T10:30:49.684Z,4.75
2023-05-15T10:33:16.260Z,4.30
2023-05-15T10:35:43.363Z,4.28
2023-05-15T10:38:10.776Z,4.55
2023-05-15T10:40:39.320Z,3.88
2023-05-15T10:43:06.234Z,4.32
2023-05-15T10:45:33.393Z,4.30
2023-05-15T10:48:00.708Z,3.65
2023-05-15T10:50:27.619Z,3.42
2023-05-15T10:52:55.314Z,3.83
2023-05-15T10:55:22.484Z,4.03
2023-05-15T10:57:49.016Z,4.18
2023-05-15T11:00:27.074Z,4.40
2023-05-15T11:02:56.559Z,3.83
2023-05-15T11:05:23.736Z,3.60
2023-05-15T11:08:15.333Z,4.13
2023-05-15T11:10:42.003Z,3.67
2023-05-15T11:13:08.699Z,3.50
2023-05-15T11:15:43.253Z,3.63
2023-05-15T11:18:09.915Z,3.83
2023-05-15T11:20:43.271Z,3.33
2023-05-15T11:23:09.990Z,3.45
2023-05-15T11:25:37.130Z,3.60
2023-05-15T11:28:04.748Z,3.33
2023-05-15T11:30:35.771Z,3.60
2023-05-15T11:33:08.604Z,3.50
2023-05-15T11:35:43.255Z,3.25
2023-05-15T11:38:09.721Z,3.35
2023-05-15T11:40:49.797Z,3.65
2023-05-15T11:43:25.130Z,3.23
2023-05-15T11:45:56.010Z,3.15
2023-05-15T11:50:49.715Z,3.72
2023-05-15T11:53:16.683Z,3.53
2023-05-15T11:55:44.137Z,3.72
2023-05-15T11:58:13.069Z,4.22
2023-05-15T12:00:40.521Z,3.67
2023-05-15T12:03:11.759Z,4.97
2023-05-15T12:05:53.617Z,3.20
2023-05-15T12:08:23.972Z,3.72
2023-05-15T12:10:50.650Z,3.90
2023-05-15T12:13:18.427Z,3.70
2023-05-15T12:15:46.296Z,3.30
2023-05-15T12:18:13.730Z,2.65
2023-05-15T12:20:44.914Z,2.83
2023-05-15T12:23:15.346Z,2.90
2023-05-15T12:25:43.850Z,3.25
2023-05-15T12:28:11.832Z,2.72
2023-05-15T12:30:38.474Z,2.40
2023-05-15T12:33:07.121Z,1.98
2023-05-15T12:35:34.724Z,2.20
2023-05-15T12:38:05.042Z,1.95
2023-05-15T12:40:35.749Z,2.38
2023-05-15T12:43:08.864Z,1.70
2023-05-15T12:45:38.428Z,1.52
2023-05-15T12:48:05.912Z,1.50
2023-05-15T12:50:33.796Z,1.30
2023-05-15T12:53:05.421Z,1.40
2023-05-15T12:55:34.064Z,1.88
2023-05-15T12:58:02.325Z,1.50
2023-05-15T13:00:29.934Z,2.10
2023-05-15T13:02:58.067Z,1.55
2023-05-15T13:05:25.717Z,2.35
2023-05-15T13:07:52.624Z,1.50
2023-05-15T13:10:23.738Z,2.17
2023-05-15T13:12:52.166Z,2.50
2023-05-15T13:15:45.104Z,2.15
2023-05-15T13:18:14.473Z,2.03
2023-05-15T13:20:43.552Z,2.35
2023-05-15T13:23:13.851Z,2.38
2023-05-15T13:25:41.468Z,2.63
2023-05-15T13:28:10.543Z,2.35
2023-05-15T13:30:41.902Z,2.78
2023-05-15T13:33:10.949Z,2.47
2023-05-15T13:35:38.381Z,2.45
2023-05-15T13:38:12.193Z,2.42
2023-05-15T13:40:39.196Z,2.70
2023-05-15T13:43:08.657Z,2.10
2023-05-15T13:45:35.224Z,2.47
2023-05-15T13:48:01.858Z,2.55
2023-05-15T13:50:28.505Z,2.50
2023-05-15T13:52:55.148Z,2.47
2023-05-15T13:55:23.172Z,2.72
2023-05-15T13:57:57.601Z,1.95
2023-05-15T14:00:24.329Z,2.00
2023-05-15T14:02:51.088Z,2.00
2023-05-15T14:05:17.835Z,1.90
2023-05-15T14:07:44.918Z,1.92
2023-05-15T14:10:11.873Z,1.77
2023-05-15T14:12:38.849Z,1.52
2023-05-15T14:15:05.966Z,1.75
2023-05-15T14:17:32.648Z,2.08
2023-05-15T14:19:59.258Z,2.10
2023-05-15T14:22:25.858Z,2.13
2023-05-15T14:24:55.580Z,2.15
2023-05-15T14:27:22.450Z,2.20
2023-05-15T14:29:49.556Z,1.80
2023-05-15T14:32:16.647Z,2.00
2023-05-15T14:34:43.671Z,1.88
2023-05-15T14:37:10.352Z,1.75
2023-05-15T14:39:36.931Z,2.00
2023-05-15T14:42:03.722Z,2.22
2023-05-15T14:44:30.333Z,2.00
2023-05-15T14:47:11.097Z,1.83
2023-05-15T14:49:37.816Z,1.80
2023-05-15T14:52:07.137Z,1.95
2023-05-15T14:54:33.966Z,1.90
2023-05-15T14:57:00.533Z,2.03
2023-05-15T14:59:27.601Z,1.73
2023-05-15T15:01:54.262Z,1.70
2023-05-15T15:04:21.024Z,1.80
2023-05-15T15:06:48.079Z,1.83
2023-05-15T15:09:14.657Z,1.60
2023-05-15T15:11:41.279Z,1.65
2023-05-15T15:14:07.926Z,1.75
2023-05-15T15:16:34.544Z,1.70
2023-05-15T15:19:01.239Z,1.80
2023-05-15T15:21:27.868Z,2.00
2023-05-15T15:23:55.205Z,1.90
2023-05-15T15:26:21.818Z,1.58
2023-05-15T15:28:48.767Z,1.77
2023-05-15T15:31:15.814Z,1.92
2023-05-15T15:33:42.428Z,2.05
2023-05-15T15:36:09.074Z,1.83
2023-05-15T15:38:36.019Z,1.67
2023-05-15T15:41:03.675Z,1.63
2023-05-15T15:43:30.346Z,1.80
2023-05-15T15:45:56.976Z,1.48
2023-05-15T15:48:23.740Z,2.10
2023-05-15T15:50:51.706Z,2.10
2023-05-15T15:53:18.491Z,1.80
2023-05-15T15:55:47.043Z,1.70
2023-05-15T15:58:13.951Z,2.08
2023-05-15T16:00:41.260Z,1.50
2023-05-15T16:03:08.026Z,1.95
2023-05-15T16:05:34.835Z,1.90
2023-05-15T16:08:01.426Z,1.95
2023-05-15T16:10:28.045Z,2.00
2023-05-15T16:12:54.628Z,2.00
2023-05-15T16:15:23.676Z,1.55
2023-05-15T16:17:52.860Z,2.13
2023-05-15T16:20:20.146Z,1.83
2023-05-15T16:22:46.767Z,1.92
2023-05-15T16:25:13.401Z,1.85
2023-05-15T16:27:39.895Z,1.90
2023-05-15T16:30:07.173Z,1.90
2023-05-15T16:32:34.176Z,1.90
2023-05-15T16:35:00.872Z,1.92
2023-05-15T16:37:27.544Z,2.08
2023-05-15T16:39:54.084Z,2.60
2023-05-15T16:42:20.684Z,1.88
2023-05-15T16:44:47.420Z,2.25
2023-05-15T16:47:13.964Z,1.92
2023-05-15T16:49:43.320Z,2.20
2023-05-15T16:52:43.983Z,2.00
2023-05-15T16:55:13.729Z,2.20
2023-05-15T16:57:40.437Z,2.15
2023-05-15T17:00:20.979Z,3.10
2023-05-15T17:03:10.781Z,1.90
2023-05-15T17:05:48.568Z,2.10
2023-05-15T17:08:15.325Z,2.33
2023-05-15T17:10:41.960Z,2.45
2023-05-15T17:13:08.441Z,2.65
2023-05-15T17:15:35.080Z,2.83
2023-05-15T17:18:01.702Z,2.85
2023-05-15T17:20:28.928Z,2.60
2023-05-15T17:22:55.626Z,2.80
2023-05-15T17:25:22.313Z,3.10
2023-05-15T17:27:48.850Z,2.78
2023-05-15T17:30:15.655Z,2.85
2023-05-15T17:32:42.272Z,2.60
2023-05-15T17:35:09.228Z,2.80
2023-05-15T17:37:36.029Z,3.20
2023-05-15T17:40:02.550Z,2.63
2023-05-15T17:42:29.079Z,2.58
2023-05-15T17:44:56.522Z,2.70
2023-05-15T17:47:23.279Z,2.78
2023-05-15T17:49:49.790Z,3.13
2023-05-15T17:52:16.390Z,2.80
2023-05-15T17:54:42.933Z,2.80
2023-05-15T17:57:09.489Z,2.90
2023-05-15T17:59:35.994Z,2.67
2023-05-15T18:02:02.774Z,3.70
2023-05-15T18:04:29.385Z,3.13
2023-05-15T18:06:56.129Z,3.08
2023-05-15T18:09:24.221Z,3.10
2023-05-15T18:11:51.247Z,2.78
2023-05-15T18:14:17.802Z,2.70
2023-05-15T18:16:44.351Z,2.83
2023-05-15T18:19:11.011Z,3.05
2023-05-15T18:21:38.117Z,3.30
2023-05-15T18:24:04.982Z,2.58
2023-05-15T18:26:31.473Z,2.65
2023-05-15T18:28:58.049Z,2.40
2023-05-15T18:31:24.651Z,3.00
2023-05-15T18:33:51.242Z,2.50
2023-05-15T18:36:18.249Z,2.55
2023-05-15T18:38:45.275Z,3.20
2023-05-15T18:41:11.828Z,3.08
2023-05-15T18:43:38.368Z,4.72
2023-05-15T18:46:05.668Z,2.70
2023-05-15T18:48:32.186Z,3.33
2023-05-15T18:50:58.724Z,3.97
2023-05-15T18:53:25.515Z,4.10
2023-05-15T18:55:52.146Z,5.18
2023-05-15T18:58:18.630Z,4.68
2023-05-15T19:00:45.329Z,4.32
2023-05-15T19:03:12.105Z,3.25
2023-05-15T19:05:38.700Z,3.20
2023-05-15T19:08:05.309Z,3.35
2023-05-15T19:10:31.863Z,3.20
2023-05-15T19:12:58.580Z,3.20
2023-05-15T19:15:25.498Z,3.25
2023-05-15T19:17:52.341Z,3.45
2023-05-15T19:20:19.041Z,3.50
2023-05-15T19:22:46.267Z,3.20
2023-05-15T19:25:13.001Z,3.53
2023-05-15T19:27:39.693Z,3.03
2023-05-15T19:30:07.167Z,3.70
2023-05-15T19:32:34.332Z,3.20
2023-05-15T19:35:00.996Z,6.30
2023-05-15T19:37:27.519Z,5.10
2023-05-15T19:39:54.178Z,3.55
2023-05-15T19:42:20.900Z,3.70
2023-05-15T19:44:47.402Z,4.00
2023-05-15T19:47:35.497Z,3.78
2023-05-15T19:50:02.131Z,4.15
2023-05-15T19:52:29.573Z,3.95
2023-05-15T19:54:56.092Z,3.90
2023-05-15T19:57:22.630Z,4.43
2023-05-15T19:59:49.422Z,3.85
2023-05-15T20:02:15.924Z,3.92
2023-05-15T20:04:42.497Z,4.00
2023-05-15T20:07:09.166Z,3.80
2023-05-15T20:09:37.324Z,3.97
2023-05-15T20:12:06.356Z,4.32
2023-05-15T20:14:34.226Z,4.05
2023-05-15T20:17:00.792Z,4.28
2023-05-15T20:19:27.874Z,5.28
2023-05-15T20:21:54.453Z,3.92
2023-05-15T20:24:25.649Z,4.03
2023-05-15T20:29:18.785Z,3.72
2023-05-15T20:31:45.684Z,4.13
2023-05-15T20:34:14.902Z,4.50
2023-05-15T20:36:41.434Z,4.70
2023-05-15T20:39:08.594Z,4.00
2023-05-15T20:41:35.481Z,4.07
2023-05-15T20:44:02.096Z,4.00
2023-05-15T20:46:30.185Z,4.15
2023-05-15T20:48:57.575Z,4.35
2023-05-15T20:51:24.149Z,4.10
2023-05-15T20:53:50.955Z,4.10
2023-05-15T20:56:17.530Z,4.22
2023-05-15T20:58:44.378Z,3.65
2023-05-15T21:01:10.949Z,4.07
2023-05-15T21:03:37.511Z,4.15
2023-05-15T21:06:04.385Z,4.20
2023-05-15T21:08:30.954Z,4.10
2023-05-15T21:10:57.499Z,3.50
2023-05-15T21:13:24.235Z,4.28
2023-05-15T21:15:50.839Z,4.07
2023-05-15T21:18:18.786Z,4.70
2023-05-15T21:20:45.409Z,3.65
2023-05-15T21:23:11.894Z,4.55
2023-05-15T21:25:38.414Z,3.88
2023-05-15T21:28:04.935Z,4.63
2023-05-15T21:30:31.677Z,4.50
2023-05-15T21:32:58.216Z,4.68
2023-05-15T21:35:25.445Z,4.03
2023-05-15T21:37:51.989Z,5.72
2023-05-15T21:40:18.596Z,4.80
2023-05-15T21:42:45.165Z,5.00
2023-05-15T21:45:11.725Z,5.15
2023-05-15T21:47:38.327Z,4.53
2023-05-15T21:50:06.143Z,5.15
2023-05-15T21:52:32.993Z,4.93
2023-05-15T21:54:59.502Z,5.03
2023-05-15T21:57:26.028Z,4.88
2023-05-15T21:59:52.576Z,5.35
2023-05-15T22:02:19.096Z,5.03
2023-05-15T22:04:45.662Z,5.20
2023-05-15T22:07:14.800Z,5.53
2023-05-15T22:09:41.346Z,5.32
2023-05-15T22:12:08.182Z,4.57
2023-05-15T22:14:35.100Z,5.50
2023-05-15T22:17:01.941Z,5.05
2023-05-15T22:19:33.112Z,5.20
2023-05-15T22:22:01.101Z,4.95
2023-05-15T22:24:27.626Z,5.78
2023-05-15T22:26:54.213Z,5.60
2023-05-15T22:29:20.734Z,5.53
2023-05-15T22:31:47.371Z,5.28
2023-05-15T22:34:13.950Z,6.00
2023-05-15T22:36:41.146Z,5.25
2023-05-15T22:39:08.034Z,5.97
2023-05-15T22:41:34.600Z,4.78
2023-05-15T22:44:02.102Z,5.38
2023-05-15T22:46:28.664Z,5.45
2023-05-15T22:48:55.216Z,5.47
2023-05-15T22:51:22.221Z,5.82
2023-05-15T22:53:48.802Z,5.70
2023-05-15T22:56:15.306Z,6.38
2023-05-15T22:58:41.872Z,6.05
2023-05-15T23:01:09.129Z,5.80
2023-05-15T23:03:35.733Z,6.28
2023-05-15T23:06:02.264Z,6.15
2023-05-15T23:08:28.794Z,6.60
2023-05-15T23:10:56.222Z,6.43
2023-05-15T23:13:22.817Z,6.70
2023-05-15T23:15:49.392Z,6.60
2023-05-15T23:18:17.027Z,6.22
2023-05-15T23:20:43.599Z,7.20
2023-05-15T23:23:10.085Z,6.85
2023-05-15T23:25:36.639Z,7.13
2023-05-15T23:28:03.427Z,6.57
2023-05-15T23:30:30.079Z,8.05
2023-05-15T23:32:57.102Z,8.48
2023-05-15T23:35:23.692Z,7.65
2023-05-15T23:37:50.230Z,7.20
2023-05-15T23:40:16.778Z,7.68
2023-05-15T23:42:43.270Z,7.28
2023-05-15T23:45:10.462Z,7.22
2023-05-15T23:47:37.039Z,7.03
2023-05-15T23:50:03.815Z,6.88
2023-05-15T23:52:30.313Z,7.15
2023-05-15T23:54:57.324Z,7.65
2023-05-15T23:57:23.825Z,7.35
2023-05-15T23:59:50.850Z,7.45
